Portada
METAR-TAF:

METAR-TAF

Aeroports :

Puerto Maldonado, Perú

latitud: 12-38S, longitud: 069-12W, altitud: 265 m

Observació

L'informe es va fer fa 8 hores i 35 minuts, a les 15:00 UTC
Vent 2 kt amb direcció variable
Temperatura 29°C
Humitat 66%
Pressió 1015 hPa
Visibilitat 10 km o més
sense núvols per sota de 1500 mi sense presència de cumulonimbus.

METAR: SPTU 031500Z VRB02KT CAVOK 29/22 Q1015 RMK BIRD HAZARD RWY 01/19 PP000

Hora: 18:35 (23:35 UTC)

Pronòstic

L'informe es va fer fa 6 hores i 35 minuts, a les 17:00 UTC
Pronòstic vàlid del 03 a les 18 UTC al 04 a les 18 UTC
Vent 5 kt del Oest/Nord-Oest
Visibilitat 10 km o més
Escasses núvols a una alçada de 2000 ft

TAF: SPTU 031700Z 0318/0418 30005KT 9999 FEW020 TX32/0320Z TN18/0411Z

Observacions i pronòstics meteorològics de més de 4000 aeroports (METAR i TAF).

Les estacions disponibles són els punts grocs i vermells al mapa.

Posi el ratolí al punt desitjat per veure el nom de l'estació.

Feu clic per veure les observacions i els pronòstics meteorològics.

Per canviar el mapa: feu clic els botons verds amb una creu de color negre per apropar; al botó verd amb un guió per allunyar la imatge; o en les fletxes verdes per a mapes adjacents.


METAR-TAF: